createdAt,value
2023-02-04T00:02:03.992Z,30.38
2023-02-04T00:04:30.353Z,33.22
2023-02-04T00:06:56.737Z,23.35
2023-02-04T00:09:23.193Z,35.97
2023-02-04T00:11:49.583Z,30.73
2023-02-04T00:14:15.966Z,30.60
2023-02-04T00:16:42.398Z,36.33
2023-02-04T00:19:08.756Z,34.55
2023-02-04T00:21:35.117Z,31.85
2023-02-04T00:24:01.592Z,29.17
2023-02-04T00:26:28.015Z,28.73
2023-02-04T00:28:54.510Z,25.75
2023-02-04T00:31:20.989Z,36.63
2023-02-04T00:33:47.356Z,31.25
2023-02-04T00:36:13.765Z,29.35
2023-02-04T00:38:40.121Z,20.83
2023-02-04T00:41:07.040Z,28.98
2023-02-04T00:43:33.684Z,31.55
2023-02-04T00:46:00.295Z,32.22
2023-02-04T00:48:26.978Z,26.48
2023-02-04T00:50:54.057Z,29.52
2023-02-04T00:53:20.492Z,29.90
2023-02-04T00:55:46.868Z,33.85
2023-02-04T00:58:13.296Z,29.33
2023-02-04T01:00:39.727Z,24.55
2023-02-04T01:03:06.222Z,37.50
2023-02-04T01:05:32.629Z,25.33
2023-02-04T01:07:59.033Z,28.95
2023-02-04T01:10:25.460Z,33.38
2023-02-04T01:12:52.201Z,28.45
2023-02-04T01:15:18.652Z,27.38
2023-02-04T01:17:45.068Z,29.50
2023-02-04T01:20:11.912Z,30.60
2023-02-04T01:22:38.375Z,30.33
2023-02-04T01:25:05.186Z,33.70
2023-02-04T01:27:31.605Z,32.85
2023-02-04T01:29:58.073Z,36.25
2023-02-04T01:32:24.547Z,29.50
2023-02-04T01:34:50.960Z,25.27
2023-02-04T01:37:18.000Z,29.23
2023-02-04T01:39:44.452Z,34.60
2023-02-04T01:42:11.667Z,35.55
2023-02-04T01:44:39.371Z,30.85
2023-02-04T01:47:05.877Z,31.30
2023-02-04T01:49:32.440Z,27.38
2023-02-04T01:51:58.897Z,33.15
2023-02-04T01:54:26.543Z,30.65
2023-02-04T01:56:55.191Z,25.63
2023-02-04T01:59:22.673Z,29.83
2023-02-04T02:01:54.086Z,35.90
2023-02-04T02:04:30.170Z,27.40
2023-02-04T02:06:59.291Z,31.50
2023-02-04T02:09:27.546Z,33.10
2023-02-04T02:11:54.294Z,30.50
2023-02-04T02:14:21.065Z,31.95
2023-02-04T02:16:47.767Z,31.35
2023-02-04T02:19:20.344Z,40.35
2023-02-04T02:22:28.033Z,34.83
2023-02-04T02:24:54.459Z,27.98
2023-02-04T02:27:21.956Z,26.27
2023-02-04T02:29:48.621Z,39.03
2023-02-04T02:32:15.700Z,37.63
2023-02-04T02:34:43.494Z,28.77
2023-02-04T02:37:10.043Z,36.85
2023-02-04T02:39:38.527Z,29.30
2023-02-04T02:42:05.269Z,22.50
2023-02-04T02:44:32.211Z,24.95
2023-02-04T02:46:59.000Z,31.90
2023-02-04T02:49:26.460Z,33.92
2023-02-04T02:51:53.272Z,24.35
2023-02-04T02:54:24.187Z,30.35
2023-02-04T02:56:51.698Z,25.38
2023-02-04T02:59:18.832Z,28.20
2023-02-04T03:01:48.761Z,25.80
2023-02-04T03:04:16.332Z,28.30
2023-02-04T03:06:42.778Z,23.77
2023-02-04T03:09:09.127Z,28.83
2023-02-04T03:11:36.332Z,25.05
2023-02-04T03:14:03.937Z,28.23
2023-02-04T03:16:33.051Z,29.23
2023-02-04T03:19:04.669Z,26.80
2023-02-04T03:21:31.263Z,30.48
2023-02-04T03:23:57.647Z,37.22
2023-02-04T03:26:25.236Z,30.10
2023-02-04T03:28:53.214Z,26.33
2023-02-04T03:31:19.821Z,29.38
2023-02-04T03:33:46.302Z,23.45
2023-02-04T03:36:12.692Z,27.23
2023-02-04T03:38:39.129Z,36.65
2023-02-04T03:41:05.714Z,35.50
2023-02-04T03:43:33.928Z,22.27
2023-02-04T03:46:00.586Z,32.30
2023-02-04T03:48:26.971Z,25.52
2023-02-04T03:50:53.333Z,34.97
2023-02-04T03:53:22.015Z,28.13
2023-02-04T03:55:48.377Z,41.00
2023-02-04T03:58:14.739Z,33.83
2023-02-04T04:00:41.172Z,27.67
2023-02-04T04:03:07.612Z,29.85
2023-02-04T04:05:34.032Z,33.90
2023-02-04T04:08:00.430Z,30.10
2023-02-04T04:10:26.814Z,34.47
2023-02-04T04:12:53.197Z,31.70
2023-02-04T04:15:19.528Z,27.10
2023-02-04T04:17:45.932Z,34.30
2023-02-04T04:20:12.619Z,31.58
2023-02-04T04:22:39.321Z,31.23
2023-02-04T04:25:06.442Z,36.90
2023-02-04T04:27:32.794Z,25.60
2023-02-04T04:29:59.120Z,24.00
2023-02-04T04:32:25.449Z,31.00
2023-02-04T04:34:51.788Z,32.88
2023-02-04T04:37:18.121Z,26.52
2023-02-04T04:39:44.496Z,26.77
2023-02-04T04:42:10.816Z,25.70
2023-02-04T04:44:37.176Z,25.27
2023-02-04T04:47:03.664Z,24.33
2023-02-04T04:49:30.033Z,25.70
2023-02-04T04:51:56.374Z,30.85
2023-02-04T04:54:22.709Z,25.83
2023-02-04T04:56:49.053Z,32.30
2023-02-04T04:59:15.486Z,28.70
2023-02-04T05:01:42.012Z,27.70
2023-02-04T05:04:08.362Z,27.48
2023-02-04T05:06:34.724Z,26.25
2023-02-04T05:09:01.161Z,27.95
2023-02-04T05:11:27.624Z,30.73
2023-02-04T05:13:53.936Z,23.50
2023-02-04T05:16:20.384Z,20.27
2023-02-04T05:18:47.040Z,23.63
2023-02-04T05:21:13.506Z,25.65
2023-02-04T05:23:39.852Z,33.55
2023-02-04T05:26:06.189Z,38.83
2023-02-04T05:28:32.519Z,30.40
2023-02-04T05:30:58.923Z,26.55
2023-02-04T05:33:25.299Z,31.23
2023-02-04T05:35:51.667Z,22.75
2023-02-04T05:38:18.150Z,23.52
2023-02-04T05:40:44.487Z,24.58
2023-02-04T05:43:10.824Z,22.17
2023-02-04T05:45:37.218Z,23.02
2023-02-04T05:48:03.774Z,26.23
2023-02-04T05:50:30.312Z,17.30
2023-02-04T05:52:56.916Z,27.27
2023-02-04T05:55:23.269Z,23.52
2023-02-04T05:57:49.608Z,28.05
2023-02-04T06:00:16.016Z,28.77
2023-02-04T06:02:42.547Z,22.73
2023-02-04T06:05:08.884Z,27.88
2023-02-04T06:07:35.209Z,24.25
2023-02-04T06:10:01.598Z,21.17
2023-02-04T06:12:27.954Z,14.70
2023-02-04T06:14:54.309Z,23.40
2023-02-04T06:17:20.679Z,13.90
2023-02-04T06:19:47.001Z,11.73
2023-02-04T06:22:13.581Z,11.55
2023-02-04T06:24:39.987Z,13.35
2023-02-04T06:27:06.335Z,8.07
2023-02-04T06:29:32.657Z,9.35
2023-02-04T06:31:59.183Z,8.40
2023-02-04T06:34:25.616Z,11.20
2023-02-04T06:36:52.042Z,9.32
2023-02-04T06:39:18.401Z,7.88
2023-02-04T06:41:44.721Z,6.75
2023-02-04T06:44:11.126Z,8.50
2023-02-04T06:46:37.498Z,5.70
2023-02-04T06:49:03.822Z,8.40
2023-02-04T06:51:30.482Z,7.93
2023-02-04T06:53:56.859Z,6.93
2023-02-04T06:56:23.296Z,9.43
2023-02-04T06:58:49.720Z,12.38
2023-02-04T07:01:16.104Z,7.18
2023-02-04T07:03:42.467Z,6.35
2023-02-04T07:06:08.829Z,5.97
2023-02-04T07:08:35.199Z,11.85
2023-02-04T07:11:01.569Z,6.72
2023-02-04T07:13:27.923Z,8.05
2023-02-04T07:15:54.457Z,10.13
2023-02-04T07:18:21.284Z,10.20
2023-02-04T07:20:47.630Z,9.40
2023-02-04T07:23:14.017Z,10.65
2023-02-04T07:25:40.456Z,8.75
2023-02-04T07:28:06.912Z,8.50
2023-02-04T07:30:33.678Z,14.10
2023-02-04T07:33:00.498Z,8.63
2023-02-04T07:35:26.874Z,8.70
2023-02-04T07:37:53.204Z,8.07
2023-02-04T07:40:19.628Z,11.93
2023-02-04T07:42:46.009Z,6.70
2023-02-04T07:45:12.448Z,9.02
2023-02-04T07:47:38.849Z,6.63
2023-02-04T07:50:05.591Z,6.55
2023-02-04T07:52:31.927Z,5.07
2023-02-04T07:54:58.317Z,8.40
2023-02-04T07:57:24.668Z,9.52
2023-02-04T07:59:51.712Z,6.53
2023-02-04T08:02:18.090Z,8.40
2023-02-04T08:04:44.426Z,7.03
2023-02-04T08:07:10.777Z,5.60
2023-02-04T08:09:37.175Z,9.18
2023-02-04T08:12:03.724Z,7.10
2023-02-04T08:14:30.130Z,6.93
2023-02-04T08:16:56.521Z,5.82
2023-02-04T08:19:23.067Z,10.82
2023-02-04T08:21:49.611Z,6.82
2023-02-04T08:24:17.256Z,11.55
2023-02-04T08:26:44.143Z,11.82
2023-02-04T08:29:10.667Z,5.80
2023-02-04T08:31:38.095Z,4.90
2023-02-04T08:34:05.897Z,6.68
2023-02-04T08:36:32.695Z,5.43
2023-02-04T08:38:59.242Z,6.68
2023-02-04T08:41:25.790Z,4.93
2023-02-04T08:43:52.569Z,6.88
2023-02-04T08:46:19.136Z,4.57
2023-02-04T08:48:45.697Z,5.05
2023-02-04T08:51:12.276Z,4.15
2023-02-04T08:53:40.559Z,5.90
2023-02-04T08:56:08.912Z,5.25
2023-02-04T08:58:35.567Z,6.55
2023-02-04T09:01:02.728Z,7.80
2023-02-04T09:03:29.273Z,20.88
2023-02-04T09:05:55.864Z,9.65
2023-02-04T09:08:22.337Z,8.82
2023-02-04T09:10:48.825Z,7.22
2023-02-04T09:13:15.550Z,9.52
2023-02-04T09:15:42.043Z,7.47
2023-02-04T09:18:19.951Z,7.90
2023-02-04T09:20:46.575Z,8.55
2023-02-04T09:23:14.317Z,7.88
2023-02-04T09:25:43.849Z,8.32
2023-02-04T09:28:11.879Z,7.15
2023-02-04T09:30:39.401Z,5.28
2023-02-04T09:33:05.966Z,7.28
2023-02-04T09:35:32.372Z,7.63
2023-02-04T09:37:58.784Z,5.72
2023-02-04T09:40:27.553Z,6.00
2023-02-04T09:42:54.790Z,6.65
2023-02-04T09:45:28.753Z,8.10
2023-02-04T09:47:57.489Z,6.18
2023-02-04T09:50:26.524Z,7.70
2023-02-04T09:52:55.517Z,10.52
2023-02-04T09:55:28.470Z,5.55
2023-02-04T09:57:55.248Z,8.27
2023-02-04T10:00:24.893Z,6.20
2023-02-04T10:02:51.490Z,5.72
2023-02-04T10:05:24.648Z,4.97
2023-02-04T10:07:51.088Z,8.70
2023-02-04T10:10:23.944Z,7.57
2023-02-04T10:12:52.570Z,6.70
2023-02-04T10:15:20.459Z,6.93
2023-02-04T10:17:49.419Z,7.38
2023-02-04T10:20:21.716Z,7.57
2023-02-04T10:22:51.106Z,5.72
2023-02-04T10:25:20.389Z,7.28
2023-02-04T10:27:51.901Z,6.95
2023-02-04T10:30:21.618Z,8.15
2023-02-04T10:32:48.339Z,6.88
2023-02-04T10:35:17.520Z,5.90
2023-02-04T10:37:44.346Z,6.85
2023-02-04T10:40:34.082Z,6.97
2023-02-04T10:43:10.449Z,8.13
2023-02-04T10:45:37.948Z,8.25
2023-02-04T10:48:04.985Z,7.20
2023-02-04T10:50:31.684Z,8.82
2023-02-04T10:53:18.931Z,9.25
2023-02-04T10:55:47.250Z,8.00
2023-02-04T10:58:20.308Z,10.38
2023-02-04T11:00:46.786Z,5.97
2023-02-04T11:03:21.496Z,6.15
2023-02-04T11:05:48.077Z,5.05
2023-02-04T11:08:24.446Z,9.82
2023-02-04T11:11:15.584Z,7.00
2023-02-04T11:13:49.096Z,5.70
2023-02-04T11:16:18.439Z,5.43
2023-02-04T11:18:48.650Z,9.43
2023-02-04T11:21:33.058Z,3.67
2023-02-04T11:24:23.943Z,5.82
2023-02-04T11:26:53.868Z,5.30
2023-02-04T11:29:31.148Z,5.18
2023-02-04T11:32:12.168Z,5.22
2023-02-04T11:34:49.755Z,4.80
2023-02-04T11:37:27.785Z,4.65
2023-02-04T11:39:58.014Z,3.30
2023-02-04T11:42:30.209Z,4.70
2023-02-04T11:45:02.318Z,4.75
2023-02-04T11:47:35.648Z,4.10
2023-02-04T11:50:12.352Z,6.57
2023-02-04T11:52:42.486Z,5.68
2023-02-04T11:55:12.998Z,4.68
2023-02-04T11:57:41.641Z,6.63
2023-02-04T12:00:17.972Z,4.13
2023-02-04T12:02:47.199Z,3.78
2023-02-04T12:05:19.400Z,6.78
2023-02-04T12:07:47.829Z,6.90
2023-02-04T12:10:16.980Z,5.10
2023-02-04T12:12:49.280Z,6.90
2023-02-04T12:15:20.959Z,5.00
2023-02-04T12:17:59.837Z,4.15
2023-02-04T12:20:26.377Z,6.28
2023-02-04T12:22:53.177Z,2.80
2023-02-04T12:25:20.084Z,3.53
2023-02-04T12:27:46.525Z,4.97
2023-02-04T12:30:13.202Z,5.35
2023-02-04T12:32:39.797Z,5.03
2023-02-04T12:35:06.408Z,6.35
2023-02-04T12:37:32.769Z,5.18
2023-02-04T12:39:59.299Z,5.05
2023-02-04T12:42:25.642Z,3.97
2023-02-04T12:44:52.033Z,4.20
2023-02-04T12:47:18.404Z,2.92
2023-02-04T12:49:44.773Z,3.45
2023-02-04T12:52:11.286Z,3.13
2023-02-04T12:54:37.936Z,3.63
2023-02-04T12:57:04.316Z,4.03
2023-02-04T12:59:33.716Z,2.72
2023-02-04T13:02:00.258Z,2.55
2023-02-04T13:04:26.701Z,3.08
2023-02-04T13:06:53.250Z,2.47
2023-02-04T13:09:19.659Z,1.92
2023-02-04T13:11:46.100Z,2.20
2023-02-04T13:14:12.551Z,1.85
2023-02-04T13:16:38.912Z,3.13
2023-02-04T13:19:07.844Z,2.95
2023-02-04T13:21:36.356Z,3.47
2023-02-04T13:24:02.766Z,3.92
2023-02-04T13:26:29.231Z,3.40
2023-02-04T13:28:55.634Z,5.30
2023-02-04T13:31:22.149Z,2.95
2023-02-04T13:33:48.872Z,2.33
2023-02-04T13:36:15.473Z,2.05
2023-02-04T13:38:41.896Z,1.88
2023-02-04T13:41:08.320Z,2.08
2023-02-04T13:43:34.737Z,1.52
2023-02-04T13:46:02.897Z,1.83
2023-02-04T13:48:29.585Z,1.55
2023-02-04T13:50:56.032Z,2.85
2023-02-04T13:53:22.585Z,1.95
2023-02-04T13:55:49.009Z,2.42
2023-02-04T13:58:15.412Z,3.15
2023-02-04T14:00:41.805Z,2.30
2023-02-04T14:03:08.284Z,2.88
2023-02-04T14:05:34.743Z,3.03
2023-02-04T14:08:01.155Z,1.52
2023-02-04T14:10:27.615Z,3.35
2023-02-04T14:12:54.266Z,2.75
2023-02-04T14:15:20.664Z,1.83
2023-02-04T14:17:47.096Z,1.65
2023-02-04T14:20:13.538Z,2.80
2023-02-04T14:22:40.088Z,2.78
2023-02-04T14:25:06.580Z,2.42
2023-02-04T14:27:35.330Z,1.50
2023-02-04T14:30:01.840Z,2.75
2023-02-04T14:32:28.258Z,1.85
2023-02-04T14:34:54.754Z,1.83
2023-02-04T14:37:21.146Z,2.20
2023-02-04T14:39:47.471Z,2.67
2023-02-04T14:42:13.914Z,3.03
2023-02-04T14:44:40.337Z,2.22
2023-02-04T14:47:06.670Z,3.20
2023-02-04T14:49:34.847Z,3.55
2023-02-04T14:52:01.186Z,4.97
2023-02-04T14:54:27.559Z,3.33
2023-02-04T14:56:54.500Z,2.97
2023-02-04T14:59:20.984Z,3.30
2023-02-04T15:01:47.414Z,6.40
2023-02-04T15:04:13.843Z,9.48
2023-02-04T15:06:40.326Z,2.28
2023-02-04T15:09:06.735Z,2.05
2023-02-04T15:11:34.560Z,4.38
2023-02-04T15:14:00.957Z,3.42
2023-02-04T15:16:27.383Z,3.45
2023-02-04T15:18:54.013Z,2.80
2023-02-04T15:21:20.391Z,3.38
2023-02-04T15:23:47.380Z,3.05
2023-02-04T15:26:14.346Z,2.38
2023-02-04T15:28:40.774Z,3.53
2023-02-04T15:31:07.336Z,3.20
2023-02-04T15:33:33.736Z,2.90
2023-02-04T15:36:00.174Z,2.63
2023-02-04T15:38:26.574Z,2.55
2023-02-04T15:40:53.023Z,4.13
2023-02-04T15:43:19.478Z,3.70
2023-02-04T15:45:46.097Z,2.92
2023-02-04T15:48:13.288Z,3.97
2023-02-04T15:50:39.765Z,3.22
2023-02-04T15:53:06.765Z,2.70
2023-02-04T15:55:33.479Z,2.03
2023-02-04T15:57:59.948Z,4.47
2023-02-04T16:00:26.415Z,3.55
2023-02-04T16:02:53.033Z,3.60
2023-02-04T16:05:19.426Z,2.65
2023-02-04T16:07:45.775Z,2.17
2023-02-04T16:10:12.403Z,2.60
2023-02-04T16:12:38.830Z,4.95
2023-02-04T16:15:05.638Z,4.68
2023-02-04T16:17:32.021Z,3.50
2023-02-04T16:19:58.428Z,5.15
2023-02-04T16:22:24.865Z,5.55
2023-02-04T16:24:52.892Z,3.35
2023-02-04T16:27:19.885Z,3.55
2023-02-04T16:29:46.505Z,3.67
2023-02-04T16:32:12.973Z,3.95
2023-02-04T16:34:39.497Z,2.92
2023-02-04T16:37:05.971Z,4.30
2023-02-04T16:39:32.329Z,3.85
2023-02-04T16:41:58.854Z,3.45
2023-02-04T16:44:25.291Z,4.97
2023-02-04T16:46:51.713Z,5.47
2023-02-04T16:49:18.108Z,6.10
2023-02-04T16:51:44.461Z,6.68
2023-02-04T16:54:11.016Z,6.60
2023-02-04T16:56:37.369Z,6.63
2023-02-04T16:59:04.212Z,7.90
2023-02-04T17:01:30.724Z,5.38
2023-02-04T17:04:00.046Z,7.15
2023-02-04T17:06:32.052Z,4.72
2023-02-04T17:08:59.115Z,5.18
2023-02-04T17:11:28.987Z,4.95
2023-02-04T17:13:56.534Z,4.45
2023-02-04T17:16:22.991Z,6.97
2023-02-04T17:18:49.489Z,7.18
2023-02-04T17:21:16.117Z,6.38
2023-02-04T17:23:44.093Z,9.02
2023-02-04T17:26:10.512Z,8.55
2023-02-04T17:28:36.870Z,7.80
2023-02-04T17:31:03.312Z,6.07
2023-02-04T17:33:29.757Z,8.00
2023-02-04T17:35:56.175Z,8.60
2023-02-04T17:38:22.527Z,6.43
2023-02-04T17:40:50.106Z,6.70
2023-02-04T17:43:16.867Z,5.60
2023-02-04T17:45:43.340Z,7.20
2023-02-04T17:48:09.691Z,7.28
2023-02-04T17:50:39.268Z,9.55
2023-02-04T17:53:06.790Z,8.73
2023-02-04T17:55:35.328Z,7.97
2023-02-04T17:58:11.380Z,7.75
2023-02-04T18:00:37.944Z,8.25
2023-02-04T18:03:05.724Z,7.25
2023-02-04T18:05:35.733Z,8.93
2023-02-04T18:08:11.564Z,7.72
2023-02-04T18:10:41.571Z,7.30
2023-02-04T18:13:17.127Z,7.05
2023-02-04T18:15:55.412Z,6.75
2023-02-04T18:18:21.779Z,8.25
2023-02-04T18:20:56.336Z,8.30
2023-02-04T18:23:22.904Z,6.13
2023-02-04T18:25:49.292Z,6.95
2023-02-04T18:28:19.393Z,10.25
2023-02-04T18:30:46.899Z,7.93
2023-02-04T18:33:25.983Z,7.55
2023-02-04T18:36:00.545Z,9.82
2023-02-04T18:38:37.067Z,7.18
2023-02-04T18:41:27.632Z,7.05
2023-02-04T18:44:02.367Z,7.30
2023-02-04T18:46:35.504Z,8.57
2023-02-04T18:49:26.564Z,7.57
2023-02-04T18:51:53.563Z,10.48
2023-02-04T18:54:36.188Z,14.68
2023-02-04T18:57:16.021Z,21.83
2023-02-04T18:59:42.511Z,16.33
2023-02-04T19:02:21.305Z,15.40
2023-02-04T19:04:47.649Z,15.00
2023-02-04T19:07:15.784Z,13.32
2023-02-04T19:09:42.119Z,14.65
2023-02-04T19:12:28.240Z,12.27
2023-02-04T19:14:54.567Z,12.55
2023-02-04T19:17:25.177Z,9.43
2023-02-04T19:20:02.574Z,7.95
2023-02-04T19:22:41.609Z,9.00
2023-02-04T19:25:33.101Z,7.18
2023-02-04T19:28:02.194Z,6.68
2023-02-04T19:30:28.556Z,12.18
2023-02-04T19:32:58.240Z,8.02
2023-02-04T19:35:27.558Z,9.60
2023-02-04T19:37:56.632Z,14.30
2023-02-04T19:40:23.185Z,10.10
2023-02-04T19:42:49.802Z,8.82
2023-02-04T19:45:25.274Z,10.48
2023-02-04T19:47:54.088Z,11.02
2023-02-04T19:50:34.330Z,8.05
2023-02-04T19:53:05.017Z,7.88
2023-02-04T19:55:35.718Z,12.38
2023-02-04T19:58:29.763Z,10.25
2023-02-04T20:01:04.859Z,9.63
2023-02-04T20:03:40.545Z,9.73
2023-02-04T20:08:46.074Z,8.95
2023-02-04T20:11:24.685Z,9.63
2023-02-04T20:13:56.807Z,11.95
2023-02-04T20:16:40.843Z,8.55
2023-02-04T20:19:26.408Z,9.35
2023-02-04T20:22:07.780Z,11.85
2023-02-04T20:24:36.896Z,8.68
2023-02-04T20:27:36.679Z,9.80
2023-02-04T20:30:11.693Z,9.18
2023-02-04T20:32:55.627Z,10.00
2023-02-04T20:35:22.549Z,11.50
2023-02-04T20:37:59.248Z,10.85
2023-02-04T20:40:31.703Z,10.77
2023-02-04T20:43:01.248Z,10.70
2023-02-04T20:45:36.572Z,10.55
2023-02-04T20:48:18.042Z,8.52
2023-02-04T20:50:45.550Z,10.18
2023-02-04T20:53:19.517Z,11.00
2023-02-04T20:56:03.802Z,12.80
2023-02-04T20:58:38.797Z,12.68
2023-02-04T21:01:19.901Z,9.82
2023-02-04T21:03:47.321Z,10.48
2023-02-04T21:06:22.701Z,9.10
2023-02-04T21:08:51.961Z,7.80
2023-02-04T21:11:18.970Z,9.52
2023-02-04T21:13:45.364Z,8.85
2023-02-04T21:16:11.837Z,9.30
2023-02-04T21:18:38.939Z,11.10
2023-02-04T21:21:07.786Z,10.65
2023-02-04T21:23:35.621Z,11.60
2023-02-04T21:26:02.214Z,10.57
2023-02-04T21:28:31.878Z,9.75
2023-02-04T21:30:59.369Z,9.60
2023-02-04T21:33:26.001Z,9.98
2023-02-04T21:35:52.389Z,10.85
2023-02-04T21:38:18.796Z,11.15
2023-02-04T21:40:45.200Z,10.85
2023-02-04T21:43:11.603Z,8.68
2023-02-04T21:45:39.705Z,11.68
2023-02-04T21:48:07.885Z,12.57
2023-02-04T21:50:34.889Z,13.30
2023-02-04T21:53:01.320Z,11.48
2023-02-04T21:55:28.848Z,11.05
2023-02-04T21:57:55.337Z,11.05
2023-02-04T22:00:23.677Z,10.63
2023-02-04T22:02:51.310Z,10.77
2023-02-04T22:05:18.242Z,15.93
2023-02-04T22:07:44.686Z,12.82
2023-02-04T22:10:20.976Z,11.55
2023-02-04T22:12:47.877Z,12.23
2023-02-04T22:15:17.941Z,9.98
2023-02-04T22:17:45.188Z,13.23
2023-02-04T22:20:15.475Z,10.90
2023-02-04T22:22:46.094Z,12.75
2023-02-04T22:25:14.851Z,9.82
2023-02-04T22:27:41.290Z,12.02
2023-02-04T22:30:08.637Z,8.48
2023-02-04T22:32:35.061Z,10.60
2023-02-04T22:35:01.485Z,11.80
2023-02-04T22:37:27.866Z,10.82
2023-02-04T22:39:54.243Z,10.60
2023-02-04T22:42:20.658Z,9.57
2023-02-04T22:44:47.161Z,9.65
2023-02-04T22:47:13.516Z,11.30
2023-02-04T22:49:40.147Z,8.38
2023-02-04T22:52:06.842Z,8.68
2023-02-04T22:54:33.556Z,8.63
2023-02-04T22:57:00.557Z,8.95
2023-02-04T22:59:27.807Z,9.35
2023-02-04T23:01:55.348Z,9.73
2023-02-04T23:04:22.311Z,7.72
2023-02-04T23:06:49.196Z,9.45
2023-02-04T23:09:17.602Z,10.85
2023-02-04T23:11:44.220Z,8.43
2023-02-04T23:14:10.742Z,7.63
2023-02-04T23:16:37.145Z,8.48
2023-02-04T23:19:04.027Z,10.90
2023-02-04T23:21:30.995Z,11.63
2023-02-04T23:23:59.168Z,9.90
2023-02-04T23:26:25.875Z,9.20
2023-02-04T23:28:52.295Z,8.50
2023-02-04T23:31:18.745Z,10.60
2023-02-04T23:33:45.378Z,9.98
2023-02-04T23:36:11.857Z,8.05
2023-02-04T23:38:38.188Z,8.43
2023-02-04T23:41:04.860Z,8.88
2023-02-04T23:43:31.212Z,9.48
2023-02-04T23:45:59.754Z,7.20
2023-02-04T23:48:26.192Z,8.00
2023-02-04T23:50:52.669Z,7.78
2023-02-04T23:53:19.343Z,6.70
2023-02-04T23:55:46.203Z,8.10
2023-02-04T23:58:14.821Z,8.00
